sensor_id;sensor_type;location;lat;lon;timestamp;P1;durP1;ratioP1;P2;durP2;ratioP2
78298;SDS011;67556;55.656;12.590;2023-12-20T00:01:41;8.38;;;3.70;;
78298;SDS011;67556;55.656;12.590;2023-12-20T00:04:28;7.15;;;3.63;;
78298;SDS011;67556;55.656;12.590;2023-12-20T00:06:55;9.32;;;4.22;;
78298;SDS011;67556;55.656;12.590;2023-12-20T00:09:40;8.35;;;3.47;;
78298;SDS011;67556;55.656;12.590;2023-12-20T00:12:06;7.07;;;2.97;;
78298;SDS011;67556;55.656;12.590;2023-12-20T00:14:51;4.28;;;2.53;;
78298;SDS011;67556;55.656;12.590;2023-12-20T00:17:17;11.45;;;3.85;;
78298;SDS011;67556;55.656;12.590;2023-12-20T00:20:04;8.55;;;2.92;;
78298;SDS011;67556;55.656;12.590;2023-12-20T00:22:31;5.97;;;3.00;;
78298;SDS011;67556;55.656;12.590;2023-12-20T00:25:16;9.55;;;3.65;;
78298;SDS011;67556;55.656;12.590;2023-12-20T00:27:42;10.02;;;2.60;;
78298;SDS011;67556;55.656;12.590;2023-12-20T00:30:28;8.50;;;3.15;;
78298;SDS011;67556;55.656;12.590;2023-12-20T00:33:12;6.93;;;3.25;;
78298;SDS011;67556;55.656;12.590;2023-12-20T00:35:40;6.18;;;1.98;;
78298;SDS011;67556;55.656;12.590;2023-12-20T00:38:25;6.20;;;2.63;;
78298;SDS011;67556;55.656;12.590;2023-12-20T00:40:51;6.43;;;2.10;;
78298;SDS011;67556;55.656;12.590;2023-12-20T00:43:36;7.00;;;2.50;;
78298;SDS011;67556;55.656;12.590;2023-12-20T00:46:03;6.13;;;2.45;;
78298;SDS011;67556;55.656;12.590;2023-12-20T00:48:47;7.93;;;2.70;;
78298;SDS011;67556;55.656;12.590;2023-12-20T00:51:15;8.40;;;2.75;;
78298;SDS011;67556;55.656;12.590;2023-12-20T00:53:42;9.35;;;2.67;;
78298;SDS011;67556;55.656;12.590;2023-12-20T00:56:27;4.57;;;2.28;;
78298;SDS011;67556;55.656;12.590;2023-12-20T00:58:54;6.32;;;2.63;;
78298;SDS011;67556;55.656;12.590;2023-12-20T01:01:39;9.75;;;2.72;;
78298;SDS011;67556;55.656;12.590;2023-12-20T01:04:07;9.52;;;2.65;;
78298;SDS011;67556;55.656;12.590;2023-12-20T01:07:01;6.07;;;2.55;;
78298;SDS011;67556;55.656;12.590;2023-12-20T01:09:38;8.00;;;2.65;;
78298;SDS011;67556;55.656;12.590;2023-12-20T01:12:23;5.22;;;2.33;;
78298;SDS011;67556;55.656;12.590;2023-12-20T01:14:49;8.90;;;2.95;;
78298;SDS011;67556;55.656;12.590;2023-12-20T01:17:34;6.80;;;2.28;;
78298;SDS011;67556;55.656;12.590;2023-12-20T01:20:03;4.72;;;2.10;;
78298;SDS011;67556;55.656;12.590;2023-12-20T01:22:50;6.03;;;2.20;;
78298;SDS011;67556;55.656;12.590;2023-12-20T01:25:17;9.40;;;2.58;;
78298;SDS011;67556;55.656;12.590;2023-12-20T01:28:02;8.40;;;2.75;;
78298;SDS011;67556;55.656;12.590;2023-12-20T01:30:47;6.13;;;2.60;;
78298;SDS011;67556;55.656;12.590;2023-12-20T01:33:32;7.53;;;2.28;;
78298;SDS011;67556;55.656;12.590;2023-12-20T01:35:59;5.95;;;2.67;;
78298;SDS011;67556;55.656;12.590;2023-12-20T01:38:45;5.72;;;2.42;;
78298;SDS011;67556;55.656;12.590;2023-12-20T01:41:30;8.18;;;2.60;;
78298;SDS011;67556;55.656;12.590;2023-12-20T01:43:56;6.20;;;2.25;;
78298;SDS011;67556;55.656;12.590;2023-12-20T01:46:41;5.32;;;2.03;;
78298;SDS011;67556;55.656;12.590;2023-12-20T01:49:07;7.60;;;2.75;;
78298;SDS011;67556;55.656;12.590;2023-12-20T01:51:52;4.03;;;1.92;;
78298;SDS011;67556;55.656;12.590;2023-12-20T01:54:21;7.13;;;2.47;;
78298;SDS011;67556;55.656;12.590;2023-12-20T01:57:06;6.45;;;2.67;;
78298;SDS011;67556;55.656;12.590;2023-12-20T01:59:32;8.32;;;2.28;;
78298;SDS011;67556;55.656;12.590;2023-12-20T02:02:18;7.70;;;2.25;;
78298;SDS011;67556;55.656;12.590;2023-12-20T02:04:51;7.00;;;2.00;;
78298;SDS011;67556;55.656;12.590;2023-12-20T02:07:33;5.35;;;2.10;;
78298;SDS011;67556;55.656;12.590;2023-12-20T02:10:38;5.38;;;2.10;;
78298;SDS011;67556;55.656;12.590;2023-12-20T02:13:33;8.13;;;2.42;;
78298;SDS011;67556;55.656;12.590;2023-12-20T02:16:09;8.30;;;2.42;;
78298;SDS011;67556;55.656;12.590;2023-12-20T02:18:41;9.07;;;2.78;;
78298;SDS011;67556;55.656;12.590;2023-12-20T02:21:10;12.55;;;3.03;;
78298;SDS011;67556;55.656;12.590;2023-12-20T02:23:56;6.35;;;2.22;;
78298;SDS011;67556;55.656;12.590;2023-12-20T02:26:33;9.13;;;2.13;;
78298;SDS011;67556;55.656;12.590;2023-12-20T02:29:22;6.20;;;2.05;;
78298;SDS011;67556;55.656;12.590;2023-12-20T02:32:07;8.45;;;2.58;;
78298;SDS011;67556;55.656;12.590;2023-12-20T02:34:45;6.35;;;2.05;;
78298;SDS011;67556;55.656;12.590;2023-12-20T02:37:33;7.07;;;2.55;;
78298;SDS011;67556;55.656;12.590;2023-12-20T02:40:03;8.75;;;2.50;;
78298;SDS011;67556;55.656;12.590;2023-12-20T02:42:49;10.48;;;2.85;;
78298;SDS011;67556;55.656;12.590;2023-12-20T02:45:28;6.22;;;2.38;;
78298;SDS011;67556;55.656;12.590;2023-12-20T02:48:15;7.50;;;2.72;;
78298;SDS011;67556;55.656;12.590;2023-12-20T02:50:48;11.10;;;2.60;;
78298;SDS011;67556;55.656;12.590;2023-12-20T02:53:15;7.90;;;2.25;;
78298;SDS011;67556;55.656;12.590;2023-12-20T02:56:09;6.13;;;2.28;;
78298;SDS011;67556;55.656;12.590;2023-12-20T02:58:48;12.98;;;2.97;;
78298;SDS011;67556;55.656;12.590;2023-12-20T03:01:26;9.25;;;2.50;;
78298;SDS011;67556;55.656;12.590;2023-12-20T03:04:25;7.97;;;2.47;;
78298;SDS011;67556;55.656;12.590;2023-12-20T03:07:09;9.15;;;3.22;;
78298;SDS011;67556;55.656;12.590;2023-12-20T03:09:47;8.45;;;2.88;;
78298;SDS011;67556;55.656;12.590;2023-12-20T03:12:34;7.03;;;2.58;;
78298;SDS011;67556;55.656;12.590;2023-12-20T03:15:22;7.30;;;2.70;;
78298;SDS011;67556;55.656;12.590;2023-12-20T03:17:49;7.50;;;2.40;;
78298;SDS011;67556;55.656;12.590;2023-12-20T03:20:28;8.05;;;2.35;;
78298;SDS011;67556;55.656;12.590;2023-12-20T03:23:08;9.73;;;2.78;;
78298;SDS011;67556;55.656;12.590;2023-12-20T03:25:50;10.57;;;2.70;;
78298;SDS011;67556;55.656;12.590;2023-12-20T03:28:23;10.35;;;3.00;;
78298;SDS011;67556;55.656;12.590;2023-12-20T03:31:09;7.30;;;2.20;;
78298;SDS011;67556;55.656;12.590;2023-12-20T03:33:39;7.90;;;2.83;;
78298;SDS011;67556;55.656;12.590;2023-12-20T03:36:11;10.30;;;2.42;;
78298;SDS011;67556;55.656;12.590;2023-12-20T03:38:54;8.45;;;2.50;;
78298;SDS011;67556;55.656;12.590;2023-12-20T03:41:21;9.93;;;2.35;;
78298;SDS011;67556;55.656;12.590;2023-12-20T03:43:51;7.30;;;2.20;;
78298;SDS011;67556;55.656;12.590;2023-12-20T03:46:36;7.60;;;2.47;;
78298;SDS011;67556;55.656;12.590;2023-12-20T03:49:04;3.83;;;2.25;;
78298;SDS011;67556;55.656;12.590;2023-12-20T03:51:49;6.95;;;2.22;;
78298;SDS011;67556;55.656;12.590;2023-12-20T03:54:30;7.40;;;2.17;;
78298;SDS011;67556;55.656;12.590;2023-12-20T03:57:22;10.02;;;2.35;;
78298;SDS011;67556;55.656;12.590;2023-12-20T04:02:46;10.90;;;2.70;;
78298;SDS011;67556;55.656;12.590;2023-12-20T04:05:12;12.18;;;2.25;;
78298;SDS011;67556;55.656;12.590;2023-12-20T04:07:39;6.75;;;2.10;;
78298;SDS011;67556;55.656;12.590;2023-12-20T04:10:12;6.85;;;2.08;;
78298;SDS011;67556;55.656;12.590;2023-12-20T04:12:41;9.27;;;2.40;;
78298;SDS011;67556;55.656;12.590;2023-12-20T04:15:13;6.80;;;2.47;;
78298;SDS011;67556;55.656;12.590;2023-12-20T04:17:40;6.85;;;2.50;;
78298;SDS011;67556;55.656;12.590;2023-12-20T04:20:09;7.03;;;2.10;;
78298;SDS011;67556;55.656;12.590;2023-12-20T04:22:36;11.00;;;2.33;;
78298;SDS011;67556;55.656;12.590;2023-12-20T04:25:04;8.98;;;2.75;;
78298;SDS011;67556;55.656;12.590;2023-12-20T04:27:33;6.55;;;2.33;;
78298;SDS011;67556;55.656;12.590;2023-12-20T04:30:01;6.03;;;2.00;;
78298;SDS011;67556;55.656;12.590;2023-12-20T04:32:30;10.25;;;2.55;;
78298;SDS011;67556;55.656;12.590;2023-12-20T04:34:56;10.60;;;2.45;;
78298;SDS011;67556;55.656;12.590;2023-12-20T04:37:25;10.75;;;2.70;;
78298;SDS011;67556;55.656;12.590;2023-12-20T04:39:57;7.68;;;2.17;;
78298;SDS011;67556;55.656;12.590;2023-12-20T04:42:25;11.98;;;2.88;;
78298;SDS011;67556;55.656;12.590;2023-12-20T04:44:53;8.15;;;3.00;;
78298;SDS011;67556;55.656;12.590;2023-12-20T04:47:26;8.32;;;2.50;;
78298;SDS011;67556;55.656;12.590;2023-12-20T04:49:53;8.30;;;2.65;;
78298;SDS011;67556;55.656;12.590;2023-12-20T04:52:29;8.05;;;2.50;;
78298;SDS011;67556;55.656;12.590;2023-12-20T04:55:05;10.60;;;2.40;;
78298;SDS011;67556;55.656;12.590;2023-12-20T04:57:33;6.38;;;2.35;;
78298;SDS011;67556;55.656;12.590;2023-12-20T05:00:01;11.27;;;3.03;;
78298;SDS011;67556;55.656;12.590;2023-12-20T05:02:30;7.63;;;2.30;;
78298;SDS011;67556;55.656;12.590;2023-12-20T05:04:57;11.88;;;2.60;;
78298;SDS011;67556;55.656;12.590;2023-12-20T05:07:27;9.15;;;2.90;;
78298;SDS011;67556;55.656;12.590;2023-12-20T05:09:55;13.07;;;3.28;;
78298;SDS011;67556;55.656;12.590;2023-12-20T05:12:38;9.55;;;2.85;;
78298;SDS011;67556;55.656;12.590;2023-12-20T05:15:11;7.95;;;2.35;;
78298;SDS011;67556;55.656;12.590;2023-12-20T05:17:39;6.07;;;2.30;;
78298;SDS011;67556;55.656;12.590;2023-12-20T05:20:13;7.55;;;2.42;;
78298;SDS011;67556;55.656;12.590;2023-12-20T05:22:48;8.23;;;2.80;;
78298;SDS011;67556;55.656;12.590;2023-12-20T05:25:24;11.25;;;3.13;;
78298;SDS011;67556;55.656;12.590;2023-12-20T05:27:51;13.50;;;2.47;;
78298;SDS011;67556;55.656;12.590;2023-12-20T05:30:18;9.23;;;2.10;;
78298;SDS011;67556;55.656;12.590;2023-12-20T05:32:44;9.63;;;2.35;;
78298;SDS011;67556;55.656;12.590;2023-12-20T05:35:12;7.88;;;2.45;;
78298;SDS011;67556;55.656;12.590;2023-12-20T05:37:44;7.60;;;3.15;;
78298;SDS011;67556;55.656;12.590;2023-12-20T05:40:11;6.32;;;2.58;;
78298;SDS011;67556;55.656;12.590;2023-12-20T05:42:39;9.45;;;2.88;;
78298;SDS011;67556;55.656;12.590;2023-12-20T05:45:24;11.25;;;3.15;;
78298;SDS011;67556;55.656;12.590;2023-12-20T05:47:52;8.60;;;2.83;;
78298;SDS011;67556;55.656;12.590;2023-12-20T05:50:19;12.15;;;2.60;;
78298;SDS011;67556;55.656;12.590;2023-12-20T05:52:46;6.90;;;3.30;;
78298;SDS011;67556;55.656;12.590;2023-12-20T05:55:13;7.63;;;2.50;;
78298;SDS011;67556;55.656;12.590;2023-12-20T05:57:42;8.60;;;2.58;;
78298;SDS011;67556;55.656;12.590;2023-12-20T06:00:10;11.70;;;2.25;;
78298;SDS011;67556;55.656;12.590;2023-12-20T06:02:37;2.67;;;2.03;;
78298;SDS011;67556;55.656;12.590;2023-12-20T06:05:07;9.13;;;2.75;;
78298;SDS011;67556;55.656;12.590;2023-12-20T06:07:34;5.78;;;2.15;;
78298;SDS011;67556;55.656;12.590;2023-12-20T06:10:01;6.95;;;2.38;;
78298;SDS011;67556;55.656;12.590;2023-12-20T06:12:38;6.80;;;2.13;;
78298;SDS011;67556;55.656;12.590;2023-12-20T06:15:08;4.50;;;1.65;;
78298;SDS011;67556;55.656;12.590;2023-12-20T06:17:42;6.30;;;2.80;;
78298;SDS011;67556;55.656;12.590;2023-12-20T06:20:10;7.07;;;1.95;;
78298;SDS011;67556;55.656;12.590;2023-12-20T06:22:38;4.32;;;1.83;;
78298;SDS011;67556;55.656;12.590;2023-12-20T06:25:11;6.35;;;2.05;;
78298;SDS011;67556;55.656;12.590;2023-12-20T06:27:40;3.40;;;1.70;;
78298;SDS011;67556;55.656;12.590;2023-12-20T06:30:11;5.30;;;1.90;;
78298;SDS011;67556;55.656;12.590;2023-12-20T06:32:39;6.40;;;1.80;;
78298;SDS011;67556;55.656;12.590;2023-12-20T06:35:17;8.00;;;2.47;;
78298;SDS011;67556;55.656;12.590;2023-12-20T06:37:44;5.75;;;2.05;;
78298;SDS011;67556;55.656;12.590;2023-12-20T06:40:11;3.60;;;2.30;;
78298;SDS011;67556;55.656;12.590;2023-12-20T06:42:39;5.18;;;2.00;;
78298;SDS011;67556;55.656;12.590;2023-12-20T06:45:06;5.18;;;1.60;;
78298;SDS011;67556;55.656;12.590;2023-12-20T06:47:36;4.70;;;2.00;;
78298;SDS011;67556;55.656;12.590;2023-12-20T06:50:03;5.32;;;1.80;;
78298;SDS011;67556;55.656;12.590;2023-12-20T06:52:30;4.15;;;1.88;;
78298;SDS011;67556;55.656;12.590;2023-12-20T06:54:56;6.88;;;2.53;;
78298;SDS011;67556;55.656;12.590;2023-12-20T06:57:23;4.38;;;1.58;;
78298;SDS011;67556;55.656;12.590;2023-12-20T06:59:51;4.25;;;1.80;;
78298;SDS011;67556;55.656;12.590;2023-12-20T07:02:18;5.88;;;1.88;;
78298;SDS011;67556;55.656;12.590;2023-12-20T07:04:49;3.97;;;1.80;;
78298;SDS011;67556;55.656;12.590;2023-12-20T07:07:17;5.65;;;2.38;;
78298;SDS011;67556;55.656;12.590;2023-12-20T07:09:47;4.63;;;1.95;;
78298;SDS011;67556;55.656;12.590;2023-12-20T07:12:15;3.95;;;1.55;;
78298;SDS011;67556;55.656;12.590;2023-12-20T07:14:45;3.83;;;2.08;;
78298;SDS011;67556;55.656;12.590;2023-12-20T07:17:21;4.63;;;1.70;;
78298;SDS011;67556;55.656;12.590;2023-12-20T07:19:55;3.95;;;1.48;;
78298;SDS011;67556;55.656;12.590;2023-12-20T07:22:22;3.83;;;1.60;;
78298;SDS011;67556;55.656;12.590;2023-12-20T07:24:49;5.65;;;1.98;;
78298;SDS011;67556;55.656;12.590;2023-12-20T07:27:23;2.17;;;1.48;;
78298;SDS011;67556;55.656;12.590;2023-12-20T07:29:53;5.25;;;1.73;;
78298;SDS011;67556;55.656;12.590;2023-12-20T07:32:19;4.68;;;2.25;;
78298;SDS011;67556;55.656;12.590;2023-12-20T07:34:47;4.43;;;1.90;;
78298;SDS011;67556;55.656;12.590;2023-12-20T07:37:18;4.45;;;1.88;;
78298;SDS011;67556;55.656;12.590;2023-12-20T07:39:45;4.30;;;1.80;;
78298;SDS011;67556;55.656;12.590;2023-12-20T07:42:12;2.85;;;1.67;;
78298;SDS011;67556;55.656;12.590;2023-12-20T07:44:42;2.85;;;1.60;;
78298;SDS011;67556;55.656;12.590;2023-12-20T07:47:09;8.70;;;2.22;;
78298;SDS011;67556;55.656;12.590;2023-12-20T07:49:37;3.10;;;1.42;;
78298;SDS011;67556;55.656;12.590;2023-12-20T07:52:04;2.00;;;1.42;;
78298;SDS011;67556;55.656;12.590;2023-12-20T07:54:39;2.20;;;1.33;;
78298;SDS011;67556;55.656;12.590;2023-12-20T07:57:05;2.42;;;1.73;;
78298;SDS011;67556;55.656;12.590;2023-12-20T07:59:36;3.30;;;1.40;;
78298;SDS011;67556;55.656;12.590;2023-12-20T08:02:04;2.25;;;1.40;;
78298;SDS011;67556;55.656;12.590;2023-12-20T08:04:32;3.05;;;1.60;;
78298;SDS011;67556;55.656;12.590;2023-12-20T08:07:02;2.10;;;1.30;;
78298;SDS011;67556;55.656;12.590;2023-12-20T08:09:30;2.30;;;1.50;;
78298;SDS011;67556;55.656;12.590;2023-12-20T08:11:59;1.48;;;1.23;;
78298;SDS011;67556;55.656;12.590;2023-12-20T08:14:26;3.22;;;1.63;;
78298;SDS011;67556;55.656;12.590;2023-12-20T08:16:55;6.65;;;1.80;;
78298;SDS011;67556;55.656;12.590;2023-12-20T08:19:28;4.13;;;1.75;;
78298;SDS011;67556;55.656;12.590;2023-12-20T08:21:56;2.35;;;1.67;;
78298;SDS011;67556;55.656;12.590;2023-12-20T08:24:30;4.47;;;1.60;;
78298;SDS011;67556;55.656;12.590;2023-12-20T08:27:00;4.63;;;1.77;;
78298;SDS011;67556;55.656;12.590;2023-12-20T08:29:27;2.78;;;1.52;;
78298;SDS011;67556;55.656;12.590;2023-12-20T08:31:55;3.35;;;1.80;;
78298;SDS011;67556;55.656;12.590;2023-12-20T08:34:22;3.10;;;1.80;;
78298;SDS011;67556;55.656;12.590;2023-12-20T08:36:50;2.60;;;1.60;;
78298;SDS011;67556;55.656;12.590;2023-12-20T08:39:18;4.35;;;1.83;;
78298;SDS011;67556;55.656;12.590;2023-12-20T08:41:44;3.03;;;1.30;;
78298;SDS011;67556;55.656;12.590;2023-12-20T08:44:13;3.65;;;1.70;;
78298;SDS011;67556;55.656;12.590;2023-12-20T08:46:39;2.17;;;1.65;;
78298;SDS011;67556;55.656;12.590;2023-12-20T08:49:07;3.45;;;2.05;;
78298;SDS011;67556;55.656;12.590;2023-12-20T08:51:35;3.13;;;2.20;;
78298;SDS011;67556;55.656;12.590;2023-12-20T08:54:06;3.47;;;2.00;;
78298;SDS011;67556;55.656;12.590;2023-12-20T08:56:33;2.15;;;1.73;;
78298;SDS011;67556;55.656;12.590;2023-12-20T08:59:08;2.83;;;1.73;;
78298;SDS011;67556;55.656;12.590;2023-12-20T09:01:36;2.70;;;1.75;;
78298;SDS011;67556;55.656;12.590;2023-12-20T09:04:03;3.38;;;1.70;;
78298;SDS011;67556;55.656;12.590;2023-12-20T09:06:31;5.28;;;2.10;;
78298;SDS011;67556;55.656;12.590;2023-12-20T09:08:59;11.63;;;5.55;;
78298;SDS011;67556;55.656;12.590;2023-12-20T09:11:26;8.38;;;4.05;;
78298;SDS011;67556;55.656;12.590;2023-12-20T09:13:54;8.75;;;2.38;;
78298;SDS011;67556;55.656;12.590;2023-12-20T09:16:21;6.38;;;2.10;;
78298;SDS011;67556;55.656;12.590;2023-12-20T09:19:01;7.38;;;2.35;;
78298;SDS011;67556;55.656;12.590;2023-12-20T09:21:29;7.70;;;2.25;;
78298;SDS011;67556;55.656;12.590;2023-12-20T09:24:03;6.20;;;2.20;;
78298;SDS011;67556;55.656;12.590;2023-12-20T09:26:29;8.30;;;2.47;;
78298;SDS011;67556;55.656;12.590;2023-12-20T09:28:56;5.30;;;2.00;;
78298;SDS011;67556;55.656;12.590;2023-12-20T09:31:29;4.63;;;1.80;;
78298;SDS011;67556;55.656;12.590;2023-12-20T09:36:23;4.63;;;1.70;;
78298;SDS011;67556;55.656;12.590;2023-12-20T09:38:50;4.35;;;1.98;;
78298;SDS011;67556;55.656;12.590;2023-12-20T09:41:18;5.57;;;2.33;;
78298;SDS011;67556;55.656;12.590;2023-12-20T09:43:44;5.95;;;1.90;;
78298;SDS011;67556;55.656;12.590;2023-12-20T09:46:11;6.25;;;1.95;;
78298;SDS011;67556;55.656;12.590;2023-12-20T09:48:38;8.88;;;2.22;;
78298;SDS011;67556;55.656;12.590;2023-12-20T09:51:05;6.28;;;2.45;;
78298;SDS011;67556;55.656;12.590;2023-12-20T09:53:33;5.68;;;2.13;;
78298;SDS011;67556;55.656;12.590;2023-12-20T09:56:15;4.43;;;2.28;;
78298;SDS011;67556;55.656;12.590;2023-12-20T09:58:42;5.07;;;2.20;;
78298;SDS011;67556;55.656;12.590;2023-12-20T10:01:08;8.13;;;2.33;;
78298;SDS011;67556;55.656;12.590;2023-12-20T10:03:34;5.75;;;2.30;;
78298;SDS011;67556;55.656;12.590;2023-12-20T10:06:03;6.85;;;2.10;;
78298;SDS011;67556;55.656;12.590;2023-12-20T10:08:39;4.25;;;2.15;;
78298;SDS011;67556;55.656;12.590;2023-12-20T10:11:13;4.70;;;2.38;;
78298;SDS011;67556;55.656;12.590;2023-12-20T10:13:40;6.45;;;3.05;;
78298;SDS011;67556;55.656;12.590;2023-12-20T10:16:08;6.95;;;2.22;;
78298;SDS011;67556;55.656;12.590;2023-12-20T10:18:34;7.00;;;2.45;;
78298;SDS011;67556;55.656;12.590;2023-12-20T10:21:06;3.17;;;1.85;;
78298;SDS011;67556;55.656;12.590;2023-12-20T10:23:37;6.97;;;2.33;;
78298;SDS011;67556;55.656;12.590;2023-12-20T10:26:06;4.53;;;2.20;;
78298;SDS011;67556;55.656;12.590;2023-12-20T10:28:34;6.57;;;2.30;;
78298;SDS011;67556;55.656;12.590;2023-12-20T10:31:01;10.27;;;2.72;;
78298;SDS011;67556;55.656;12.590;2023-12-20T10:33:30;6.97;;;2.63;;
78298;SDS011;67556;55.656;12.590;2023-12-20T10:35:58;10.40;;;2.25;;
78298;SDS011;67556;55.656;12.590;2023-12-20T10:38:24;5.72;;;1.98;;
78298;SDS011;67556;55.656;12.590;2023-12-20T10:40:52;5.43;;;2.03;;
78298;SDS011;67556;55.656;12.590;2023-12-20T10:43:24;10.05;;;3.08;;
78298;SDS011;67556;55.656;12.590;2023-12-20T10:45:54;9.88;;;2.88;;
78298;SDS011;67556;55.656;12.590;2023-12-20T10:48:21;6.82;;;2.40;;
78298;SDS011;67556;55.656;12.590;2023-12-20T10:50:52;9.25;;;2.53;;
78298;SDS011;67556;55.656;12.590;2023-12-20T10:53:20;6.82;;;2.35;;
78298;SDS011;67556;55.656;12.590;2023-12-20T10:55:55;6.60;;;2.30;;
78298;SDS011;67556;55.656;12.590;2023-12-20T10:58:22;6.65;;;2.40;;
78298;SDS011;67556;55.656;12.590;2023-12-20T11:01:00;7.45;;;2.53;;
78298;SDS011;67556;55.656;12.590;2023-12-20T11:03:30;4.30;;;2.13;;
78298;SDS011;67556;55.656;12.590;2023-12-20T11:05:59;7.65;;;2.20;;
78298;SDS011;67556;55.656;12.590;2023-12-20T11:08:32;6.78;;;2.30;;
78298;SDS011;67556;55.656;12.590;2023-12-20T11:11:07;4.53;;;2.30;;
78298;SDS011;67556;55.656;12.590;2023-12-20T11:13:40;5.35;;;1.85;;
78298;SDS011;67556;55.656;12.590;2023-12-20T11:16:12;4.05;;;1.90;;
78298;SDS011;67556;55.656;12.590;2023-12-20T11:18:38;6.57;;;2.28;;
78298;SDS011;67556;55.656;12.590;2023-12-20T11:21:06;2.88;;;1.58;;
78298;SDS011;67556;55.656;12.590;2023-12-20T11:23:35;2.05;;;1.50;;
78298;SDS011;67556;55.656;12.590;2023-12-20T11:26:02;1.60;;;1.30;;
78298;SDS011;67556;55.656;12.590;2023-12-20T11:28:30;3.75;;;1.52;;
78298;SDS011;67556;55.656;12.590;2023-12-20T11:31:01;5.05;;;1.77;;
78298;SDS011;67556;55.656;12.590;2023-12-20T11:33:36;2.55;;;1.73;;
78298;SDS011;67556;55.656;12.590;2023-12-20T11:36:12;2.88;;;1.80;;
78298;SDS011;67556;55.656;12.590;2023-12-20T11:38:48;2.35;;;1.75;;
78298;SDS011;67556;55.656;12.590;2023-12-20T11:41:16;3.88;;;1.65;;
78298;SDS011;67556;55.656;12.590;2023-12-20T11:43:44;4.30;;;1.90;;
78298;SDS011;67556;55.656;12.590;2023-12-20T11:46:10;3.17;;;1.90;;
78298;SDS011;67556;55.656;12.590;2023-12-20T11:48:39;3.70;;;1.88;;
78298;SDS011;67556;55.656;12.590;2023-12-20T11:51:10;4.55;;;2.05;;
78298;SDS011;67556;55.656;12.590;2023-12-20T11:53:39;4.70;;;1.63;;
78298;SDS011;67556;55.656;12.590;2023-12-20T11:56:06;6.45;;;1.80;;
78298;SDS011;67556;55.656;12.590;2023-12-20T11:58:34;6.30;;;2.50;;
78298;SDS011;67556;55.656;12.590;2023-12-20T12:01:01;3.15;;;1.63;;
78298;SDS011;67556;55.656;12.590;2023-12-20T12:03:30;5.07;;;1.70;;
78298;SDS011;67556;55.656;12.590;2023-12-20T12:05:59;3.70;;;2.03;;
78298;SDS011;67556;55.656;12.590;2023-12-20T12:08:27;5.95;;;2.25;;
78298;SDS011;67556;55.656;12.590;2023-12-20T12:10:55;3.22;;;1.73;;
78298;SDS011;67556;55.656;12.590;2023-12-20T12:13:21;3.22;;;2.00;;
78298;SDS011;67556;55.656;12.590;2023-12-20T12:15:48;2.80;;;2.40;;
78298;SDS011;67556;55.656;12.590;2023-12-20T12:18:17;5.43;;;1.95;;
78298;SDS011;67556;55.656;12.590;2023-12-20T12:20:44;6.70;;;2.00;;
78298;SDS011;67556;55.656;12.590;2023-12-20T12:23:11;3.17;;;1.45;;
78298;SDS011;67556;55.656;12.590;2023-12-20T12:25:39;3.95;;;1.60;;
78298;SDS011;67556;55.656;12.590;2023-12-20T12:28:05;8.27;;;2.20;;
78298;SDS011;67556;55.656;12.590;2023-12-20T12:30:39;4.80;;;2.30;;
78298;SDS011;67556;55.656;12.590;2023-12-20T12:33:06;6.28;;;1.80;;
78298;SDS011;67556;55.656;12.590;2023-12-20T12:35:43;3.42;;;1.60;;
78298;SDS011;67556;55.656;12.590;2023-12-20T12:38:16;3.60;;;1.50;;
78298;SDS011;67556;55.656;12.590;2023-12-20T12:40:43;5.75;;;2.20;;
78298;SDS011;67556;55.656;12.590;2023-12-20T12:43:15;3.40;;;1.70;;
78298;SDS011;67556;55.656;12.590;2023-12-20T12:45:42;4.10;;;1.73;;
78298;SDS011;67556;55.656;12.590;2023-12-20T12:48:10;9.70;;;2.30;;
78298;SDS011;67556;55.656;12.590;2023-12-20T12:50:37;9.23;;;2.30;;
78298;SDS011;67556;55.656;12.590;2023-12-20T12:53:05;3.58;;;1.83;;
78298;SDS011;67556;55.656;12.590;2023-12-20T12:55:34;3.47;;;1.83;;
78298;SDS011;67556;55.656;12.590;2023-12-20T12:58:06;7.63;;;2.00;;
78298;SDS011;67556;55.656;12.590;2023-12-20T13:00:33;5.25;;;2.08;;
78298;SDS011;67556;55.656;12.590;2023-12-20T13:03:00;2.67;;;2.13;;
78298;SDS011;67556;55.656;12.590;2023-12-20T13:05:27;3.55;;;1.50;;
78298;SDS011;67556;55.656;12.590;2023-12-20T13:07:54;3.85;;;1.73;;
78298;SDS011;67556;55.656;12.590;2023-12-20T13:10:20;6.40;;;2.00;;
78298;SDS011;67556;55.656;12.590;2023-12-20T13:12:50;7.25;;;2.00;;
78298;SDS011;67556;55.656;12.590;2023-12-20T13:15:17;3.63;;;1.75;;
78298;SDS011;67556;55.656;12.590;2023-12-20T13:17:49;4.50;;;1.90;;
78298;SDS011;67556;55.656;12.590;2023-12-20T13:20:22;4.45;;;1.80;;
78298;SDS011;67556;55.656;12.590;2023-12-20T13:22:49;3.97;;;1.77;;
78298;SDS011;67556;55.656;12.590;2023-12-20T13:25:15;2.13;;;1.42;;
78298;SDS011;67556;55.656;12.590;2023-12-20T13:27:41;6.97;;;1.70;;
78298;SDS011;67556;55.656;12.590;2023-12-20T13:30:11;3.72;;;1.80;;
78298;SDS011;67556;55.656;12.590;2023-12-20T13:32:39;3.92;;;1.60;;
78298;SDS011;67556;55.656;12.590;2023-12-20T13:35:07;5.68;;;2.28;;
78298;SDS011;67556;55.656;12.590;2023-12-20T13:37:35;5.72;;;1.80;;
78298;SDS011;67556;55.656;12.590;2023-12-20T13:40:02;4.63;;;1.80;;
78298;SDS011;67556;55.656;12.590;2023-12-20T13:42:30;3.50;;;1.83;;
78298;SDS011;67556;55.656;12.590;2023-12-20T13:45:03;4.53;;;1.83;;
78298;SDS011;67556;55.656;12.590;2023-12-20T13:47:34;2.80;;;1.88;;
78298;SDS011;67556;55.656;12.590;2023-12-20T13:50:02;3.95;;;1.80;;
78298;SDS011;67556;55.656;12.590;2023-12-20T13:52:35;3.70;;;1.90;;
78298;SDS011;67556;55.656;12.590;2023-12-20T13:55:03;3.70;;;1.70;;
78298;SDS011;67556;55.656;12.590;2023-12-20T13:57:51;4.05;;;1.98;;
78298;SDS011;67556;55.656;12.590;2023-12-20T14:00:17;5.03;;;2.00;;
78298;SDS011;67556;55.656;12.590;2023-12-20T14:02:47;3.85;;;2.00;;
78298;SDS011;67556;55.656;12.590;2023-12-20T14:05:14;3.65;;;1.73;;
78298;SDS011;67556;55.656;12.590;2023-12-20T14:07:50;5.35;;;2.17;;
78298;SDS011;67556;55.656;12.590;2023-12-20T14:10:18;4.88;;;2.30;;
78298;SDS011;67556;55.656;12.590;2023-12-20T14:12:44;4.75;;;1.98;;
78298;SDS011;67556;55.656;12.590;2023-12-20T14:15:11;3.00;;;1.92;;
78298;SDS011;67556;55.656;12.590;2023-12-20T14:17:38;6.15;;;2.10;;
78298;SDS011;67556;55.656;12.590;2023-12-20T14:20:08;4.32;;;2.15;;
78298;SDS011;67556;55.656;12.590;2023-12-20T14:22:40;4.38;;;2.13;;
78298;SDS011;67556;55.656;12.590;2023-12-20T14:25:10;4.82;;;2.22;;
78298;SDS011;67556;55.656;12.590;2023-12-20T14:27:45;5.20;;;2.08;;
78298;SDS011;67556;55.656;12.590;2023-12-20T14:30:12;6.28;;;2.15;;
78298;SDS011;67556;55.656;12.590;2023-12-20T14:32:58;3.40;;;1.92;;
78298;SDS011;67556;55.656;12.590;2023-12-20T14:35:26;3.65;;;1.90;;
78298;SDS011;67556;55.656;12.590;2023-12-20T14:37:53;5.32;;;2.40;;
78298;SDS011;67556;55.656;12.590;2023-12-20T14:40:28;4.45;;;2.05;;
78298;SDS011;67556;55.656;12.590;2023-12-20T14:42:55;4.32;;;2.42;;
78298;SDS011;67556;55.656;12.590;2023-12-20T14:45:23;6.70;;;2.63;;
78298;SDS011;67556;55.656;12.590;2023-12-20T14:47:49;4.35;;;2.30;;
78298;SDS011;67556;55.656;12.590;2023-12-20T14:50:17;6.20;;;2.53;;
78298;SDS011;67556;55.656;12.590;2023-12-20T14:52:46;4.30;;;2.22;;
78298;SDS011;67556;55.656;12.590;2023-12-20T14:55:14;4.13;;;2.60;;
78298;SDS011;67556;55.656;12.590;2023-12-20T14:57:43;5.07;;;3.00;;
78298;SDS011;67556;55.656;12.590;2023-12-20T15:00:17;3.55;;;2.30;;
78298;SDS011;67556;55.656;12.590;2023-12-20T15:02:50;6.65;;;2.72;;
78298;SDS011;67556;55.656;12.590;2023-12-20T15:05:19;4.97;;;2.55;;